Seneimaru — JG5357 — position and weather

sailwx.info

Track history (hours):
 
Tides and Currents Weather Stations Pressure Air Temp Water Temp Dewpoint Dewpoint Depression Visibility Wind Speed Wind Dir Waves Ship Positions

Seneimaru

Last reported at 2018-Jan-20 11:19 UTC. Time now 2018-Jan-20 15:29 UTC.
Position N 34°33' E 138°50'.

Length 72 m; draft 5.9 m.

Type: Cargo ship. MMSI: 431100477.

Date/timePositionNaut miles runAvg speedWind from/ knotsBaromVisibWave heightAir tempDewpointWater temp
2018-Jan-20 11:19N 34°33' E 138°50'3 9.6
2018-Jan-20 10:59N 34°32' E 138°54'11 9.2
2018-Jan-20 09:48N 34°39' E 139°05'310.4
2018-Jan-20 09:30N 34°41' E 139°07'5 9.9
2018-Jan-20 08:59N 34°45' E 139°12'2310.1
2018-Jan-20 06:42N 34°60' E 139°33'211.0
2018-Jan-20 06:30N 35°01' E 139°35'611.3
2018-Jan-20 06:00N 35°05' E 139°40'511.0
2018-Jan-20 05:30N 35°09' E 139°45'611.2
2018-Jan-20 05:00N 35°15' E 139°46'510.8
2018-Jan-20 04:30N 35°19' E 139°43'510.5
2018-Jan-20 04:00N 35°24' E 139°43'611.2
2018-Jan-20 03:30N 35°29' E 139°47'3 6.7
2018-Jan-20 03:00N 35°30' E 139°43'1 1.5
2018-Jan-20 02:30N 35°30' E 139°43'0 0.0
2018-Jan-20 02:00N 35°30' E 139°43'0 0.0
2018-Jan-20 01:30N 35°30' E 139°43'0 0.0
2018-Jan-20 01:00N 35°30' E 139°43'0 0.0
2018-Jan-20 00:30N 35°30' E 139°43'0 0.0
2018-Jan-20 00:00N 35°30' E 139°43'1 1.9
2018-Jan-19 23:30N 35°29' E 139°43'3 6.3
2018-Jan-19 23:00N 35°26' E 139°44'1 2.0
2018-Jan-19 22:30N 35°26' E 139°45'4 8.5
2018-Jan-19 22:00N 35°21' E 139°45'5 9.8
2018-Jan-19 21:31N 35°17' E 139°46'510.8
2018-Jan-19 21:00N 35°11' E 139°47'510.4
2018-Jan-19 20:31N 35°07' E 139°43'510.6
2018-Jan-19 20:00N 35°03' E 139°39'2611.7
2018-Jan-19 17:45N 34°46' E 139°14'711.5
2018-Jan-19 17:09N 34°41' E 139°08'311.6
2018-Jan-19 16:56N 34°40' E 139°06'511.3
2018-Jan-19 16:27N 34°36' E 139°01'510.9
2018-Jan-19 16:00N 34°32' E 138°57'3110.6
2018-Jan-19 13:06N 34°33' E 138°20'211.1
2018-Jan-19 12:56N 34°33' E 138°17'64 4.0
2018-Jan-18 21:08N 34°38' E 137°00'92 8.6
2018-Jan-18 10:29N 34°32' E 138°51'4 7.1
2018-Jan-18 09:59N 34°33' E 138°55'6 7.7
2018-Jan-18 09:13N 34°36' E 139°01'2 8.9
2018-Jan-18 08:57N 34°37' E 139°03'5 9.1
2018-Jan-18 08:27N 34°41' E 139°07'6 9.1
2018-Jan-18 07:47N 34°44' E 139°13'22 9.5
2018-Jan-18 05:29N 34°60' E 139°32'5 9.9
2018-Jan-18 04:59N 35°03' E 139°37'510.0
2018-Jan-18 04:30N 35°06' E 139°41'510.0
2018-Jan-18 04:01N 35°10' E 139°45'510.5
2018-Jan-18 03:30N 35°15' E 139°46'510.8
2018-Jan-18 03:00N 35°20' E 139°43'510.6
2018-Jan-18 02:30N 35°25' E 139°44'511.0
2018-Jan-18 02:01N 35°29' E 139°48'4 7.3
2018-Jan-18 01:31N 35°30' E 139°43'1 1.2
2018-Jan-18 01:01N 35°30' E 139°43'0 0.0
2018-Jan-18 00:00N 35°30' E 139°43'0 0.0
2018-Jan-17 23:58N 35°30' E 139°43'  
2018-Jan-12 10:13N 34°33' E 138°50'3 7.9
2018-Jan-12 09:52N 34°33' E 138°54'3 7.3
2018-Jan-12 09:30N 34°33' E 138°57'5 8.2
2018-Jan-12 08:56N 34°36' E 139°01'4 9.1
2018-Jan-12 08:28N 34°39' E 139°05'9 9.0
2018-Jan-12 07:31N 34°45' E 139°12'0 8.2
2018-Jan-12 07:30N 34°45' E 139°12'21 8.5
2018-Jan-12 05:03N 34°59' E 139°31'0 7.9
2018-Jan-12 04:59N 34°59' E 139°32'510.2
2018-Jan-12 04:30N 35°02' E 139°36'610.9
2018-Jan-12 04:00N 35°06' E 139°42'510.7
2018-Jan-12 03:30N 35°10' E 139°45'510.8
2018-Jan-12 03:01N 35°15' E 139°46'510.8
2018-Jan-12 02:31N 35°20' E 139°43'510.1
2018-Jan-12 02:01N 35°25' E 139°43'610.8
2018-Jan-12 01:29N 35°29' E 139°48'4 7.6
2018-Jan-12 01:00N 35°30' E 139°43'1 1.2
2018-Jan-12 00:30N 35°30' E 139°43'0 0.0
2018-Jan-12 00:00N 35°30' E 139°43'0 0.0
2018-Jan-11 23:30N 35°30' E 139°43'0 0.0
2018-Jan-11 23:00N 35°30' E 139°43'0 0.0
2018-Jan-11 22:30N 35°30' E 139°43'0 0.0
2018-Jan-11 22:00N 35°30' E 139°43'0 0.0
2018-Jan-11 21:30N 35°30' E 139°43'0 0.0
2018-Jan-11 21:00N 35°30' E 139°43'2 3.6
2018-Jan-11 20:30N 35°29' E 139°42'4 7.6
2018-Jan-11 20:00N 35°25' E 139°44'2 3.4
2018-Jan-11 19:29N 35°23' E 139°45'0 0.0
2018-Jan-11 18:59N 35°23' E 139°45'0 0.0
2018-Jan-11 18:26N 35°23' E 139°45'0 0.0
2018-Jan-11 17:59N 35°23' E 139°45'0 0.0
2018-Jan-11 17:29N 35°23' E 139°45'0 0.0
2018-Jan-11 16:59N 35°23' E 139°45'0 0.0
2018-Jan-11 16:29N 35°24' E 139°45'0 0.0
2018-Jan-11 15:59N 35°23' E 139°45'0 0.0
2018-Jan-11 15:29N 35°23' E 139°45'0 0.0
2018-Jan-11 14:59N 35°23' E 139°45'0 0.0
2018-Jan-11 14:29N 35°23' E 139°45'0 0.0
2018-Jan-11 13:56N 35°23' E 139°45'0 0.0
2018-Jan-11 13:29N 35°23' E 139°45'0 0.0
2018-Jan-11 12:59N 35°23' E 139°45'0 0.0
2018-Jan-11 12:29N 35°23' E 139°45'0 0.0
2018-Jan-11 11:59N 35°23' E 139°45'0 0.0
2018-Jan-11 11:29N 35°23' E 139°45'0 0.0
2018-Jan-11 10:59N 35°23' E 139°45'0 0.0
2018-Jan-11 10:29N 35°23' E 139°45'0 0.0
2018-Jan-11 09:59N 35°23' E 139°45'0 0.0
2018-Jan-11 09:29N 35°23' E 139°45'0 0.1
2018-Jan-11 08:53N 35°24' E 139°45'0 0.0
2018-Jan-11 08:29N 35°24' E 139°45'0 0.0
2018-Jan-11 07:59N 35°24' E 139°45'0 0.0
2018-Jan-11 07:29N 35°24' E 139°45'0 0.0
2018-Jan-11 06:59N 35°24' E 139°45'0 0.0
2018-Jan-11 06:26N 35°24' E 139°45'0 0.0
2018-Jan-11 05:59N 35°24' E 139°45'0 0.0
2018-Jan-11 05:29N 35°24' E 139°45'0 0.0
2018-Jan-11 04:59N 35°24' E 139°45'0 0.0
2018-Jan-11 04:29N 35°23' E 139°45'0 0.1
2018-Jan-11 03:59N 35°24' E 139°45'0 0.0
2018-Jan-11 03:29N 35°24' E 139°45'0 0.0
2018-Jan-11 02:59N 35°24' E 139°45'0 0.1
2018-Jan-11 02:29N 35°23' E 139°45'0 0.0
2018-Jan-11 01:59N 35°23' E 139°45'0 0.1
2018-Jan-11 01:29N 35°23' E 139°45'1 1.4
2018-Jan-11 00:58N 35°23' E 139°44'0 0.0
2018-Jan-11 00:28N 35°23' E 139°44'0 0.0
2018-Jan-10 23:58N 35°23' E 139°44'0 0.0
2018-Jan-10 23:28N 35°23' E 139°44'0 0.0
2018-Jan-10 22:58N 35°23' E 139°44'0 0.0
2018-Jan-10 22:28N 35°23' E 139°44'0 0.1
2018-Jan-10 21:58N 35°23' E 139°44'0 0.0
2018-Jan-10 21:28N 35°23' E 139°44'0 0.0
2018-Jan-10 20:58N 35°23' E 139°44'0 0.0
2018-Jan-10 20:28N 35°23' E 139°44'0 0.0
2018-Jan-10 19:55N 35°23' E 139°44'0 0.0
2018-Jan-10 19:28N 35°23' E 139°44'0 0.0
2018-Jan-10 18:58N 35°23' E 139°44'0 0.0
2018-Jan-10 18:28N 35°23' E 139°44'0 0.0
2018-Jan-10 17:58N 35°23' E 139°44'0 0.1
2018-Jan-10 17:28N 35°23' E 139°44'0 0.1
2018-Jan-10 16:58N 35°23' E 139°44'0 0.0
2018-Jan-10 16:28N 35°23' E 139°44'1 1.9
2018-Jan-10 16:00N 35°22' E 139°44'510.2
2018-Jan-10 15:30N 35°17' E 139°45'510.4
2018-Jan-10 15:00N 35°12' E 139°47'510.9
2018-Jan-10 14:30N 35°07' E 139°45'711.2
2018-Jan-10 13:56N 35°03' E 139°39'512.1
2018-Jan-10 13:28N 34°59' E 139°33'1113.2
2018-Jan-10 12:39N 34°53' E 139°23'513.5
2018-Jan-10 12:17N 34°50' E 139°18'512.3
2018-Jan-10 11:51N 34°46' E 139°13'  
Track history (hours):
 
Tides and Currents Weather Stations Pressure Air Temp Water Temp Dewpoint Dewpoint Depression Visibility Wind Speed Wind Dir Waves Ship Positions

Seneimaru

Last reported at 2018-Jan-20 11:19 UTC. Time now 2018-Jan-20 15:29 UTC.
Position N 34°33' E 138°50'.

Length 72 m; draft 5.9 m.

Type: Cargo ship. MMSI: 431100477.

Date/timePositionNaut miles runAvg speedWind from/ knotsBaromVisibWave heightAir tempDewpointWater temp
2018-Jan-20 11:19N 34°33' E 138°50'3 9.6
2018-Jan-20 10:59N 34°32' E 138°54'11 9.2
2018-Jan-20 09:48N 34°39' E 139°05'310.4
2018-Jan-20 09:30N 34°41' E 139°07'5 9.9
2018-Jan-20 08:59N 34°45' E 139°12'2310.1
2018-Jan-20 06:42N 34°60' E 139°33'211.0
2018-Jan-20 06:30N 35°01' E 139°35'611.3
2018-Jan-20 06:00N 35°05' E 139°40'511.0
2018-Jan-20 05:30N 35°09' E 139°45'611.2
2018-Jan-20 05:00N 35°15' E 139°46'510.8
2018-Jan-20 04:30N 35°19' E 139°43'510.5
2018-Jan-20 04:00N 35°24' E 139°43'611.2
2018-Jan-20 03:30N 35°29' E 139°47'3 6.7
2018-Jan-20 03:00N 35°30' E 139°43'1 1.5
2018-Jan-20 02:30N 35°30' E 139°43'0 0.0
2018-Jan-20 02:00N 35°30' E 139°43'0 0.0
2018-Jan-20 01:30N 35°30' E 139°43'0 0.0
2018-Jan-20 01:00N 35°30' E 139°43'0 0.0
2018-Jan-20 00:30N 35°30' E 139°43'0 0.0
2018-Jan-20 00:00N 35°30' E 139°43'1 1.9
2018-Jan-19 23:30N 35°29' E 139°43'3 6.3
2018-Jan-19 23:00N 35°26' E 139°44'1 2.0
2018-Jan-19 22:30N 35°26' E 139°45'4 8.5
2018-Jan-19 22:00N 35°21' E 139°45'5 9.8
2018-Jan-19 21:31N 35°17' E 139°46'510.8
2018-Jan-19 21:00N 35°11' E 139°47'510.4
2018-Jan-19 20:31N 35°07' E 139°43'510.6
2018-Jan-19 20:00N 35°03' E 139°39'2611.7
2018-Jan-19 17:45N 34°46' E 139°14'711.5
2018-Jan-19 17:09N 34°41' E 139°08'311.6
2018-Jan-19 16:56N 34°40' E 139°06'511.3
2018-Jan-19 16:27N 34°36' E 139°01'510.9
2018-Jan-19 16:00N 34°32' E 138°57'3110.6
2018-Jan-19 13:06N 34°33' E 138°20'211.1
2018-Jan-19 12:56N 34°33' E 138°17'64 4.0
2018-Jan-18 21:08N 34°38' E 137°00'92 8.6
2018-Jan-18 10:29N 34°32' E 138°51'4 7.1
2018-Jan-18 09:59N 34°33' E 138°55'6 7.7
2018-Jan-18 09:13N 34°36' E 139°01'2 8.9
2018-Jan-18 08:57N 34°37' E 139°03'5 9.1
2018-Jan-18 08:27N 34°41' E 139°07'6 9.1
2018-Jan-18 07:47N 34°44' E 139°13'22 9.5
2018-Jan-18 05:29N 34°60' E 139°32'5 9.9
2018-Jan-18 04:59N 35°03' E 139°37'510.0
2018-Jan-18 04:30N 35°06' E 139°41'510.0
2018-Jan-18 04:01N 35°10' E 139°45'510.5
2018-Jan-18 03:30N 35°15' E 139°46'510.8
2018-Jan-18 03:00N 35°20' E 139°43'510.6
2018-Jan-18 02:30N 35°25' E 139°44'511.0
2018-Jan-18 02:01N 35°29' E 139°48'4 7.3
2018-Jan-18 01:31N 35°30' E 139°43'1 1.2
2018-Jan-18 01:01N 35°30' E 139°43'0 0.0
2018-Jan-18 00:00N 35°30' E 139°43'0 0.0
2018-Jan-17 23:58N 35°30' E 139°43'  
2018-Jan-12 10:13N 34°33' E 138°50'3 7.9
2018-Jan-12 09:52N 34°33' E 138°54'3 7.3
2018-Jan-12 09:30N 34°33' E 138°57'5 8.2
2018-Jan-12 08:56N 34°36' E 139°01'4 9.1
2018-Jan-12 08:28N 34°39' E 139°05'9 9.0
2018-Jan-12 07:31N 34°45' E 139°12'0 8.2
2018-Jan-12 07:30N 34°45' E 139°12'21 8.5
2018-Jan-12 05:03N 34°59' E 139°31'0 7.9
2018-Jan-12 04:59N 34°59' E 139°32'510.2
2018-Jan-12 04:30N 35°02' E 139°36'610.9
2018-Jan-12 04:00N 35°06' E 139°42'510.7
2018-Jan-12 03:30N 35°10' E 139°45'510.8
2018-Jan-12 03:01N 35°15' E 139°46'510.8
2018-Jan-12 02:31N 35°20' E 139°43'510.1
2018-Jan-12 02:01N 35°25' E 139°43'610.8
2018-Jan-12 01:29N 35°29' E 139°48'4 7.6
2018-Jan-12 01:00N 35°30' E 139°43'1 1.2
2018-Jan-12 00:30N 35°30' E 139°43'0 0.0
2018-Jan-12 00:00N 35°30' E 139°43'0 0.0
2018-Jan-11 23:30N 35°30' E 139°43'0 0.0
2018-Jan-11 23:00N 35°30' E 139°43'0 0.0
2018-Jan-11 22:30N 35°30' E 139°43'0 0.0
2018-Jan-11 22:00N 35°30' E 139°43'0 0.0
2018-Jan-11 21:30N 35°30' E 139°43'0 0.0
2018-Jan-11 21:00N 35°30' E 139°43'2 3.6
2018-Jan-11 20:30N 35°29' E 139°42'4 7.6
2018-Jan-11 20:00N 35°25' E 139°44'2 3.4
2018-Jan-11 19:29N 35°23' E 139°45'0 0.0
2018-Jan-11 18:59N 35°23' E 139°45'0 0.0
2018-Jan-11 18:26N 35°23' E 139°45'0 0.0
2018-Jan-11 17:59N 35°23' E 139°45'0 0.0
2018-Jan-11 17:29N 35°23' E 139°45'0 0.0
2018-Jan-11 16:59N 35°23' E 139°45'0 0.0
2018-Jan-11 16:29N 35°24' E 139°45'0 0.0
2018-Jan-11 15:59N 35°23' E 139°45'0 0.0
2018-Jan-11 15:29N 35°23' E 139°45'0 0.0
2018-Jan-11 14:59N 35°23' E 139°45'0 0.0
2018-Jan-11 14:29N 35°23' E 139°45'0 0.0
2018-Jan-11 13:56N 35°23' E 139°45'0 0.0
2018-Jan-11 13:29N 35°23' E 139°45'0 0.0
2018-Jan-11 12:59N 35°23' E 139°45'0 0.0
2018-Jan-11 12:29N 35°23' E 139°45'0 0.0
2018-Jan-11 11:59N 35°23' E 139°45'0 0.0
2018-Jan-11 11:29N 35°23' E 139°45'0 0.0
2018-Jan-11 10:59N 35°23' E 139°45'0 0.0
2018-Jan-11 10:29N 35°23' E 139°45'0 0.0
2018-Jan-11 09:59N 35°23' E 139°45'0 0.0
2018-Jan-11 09:29N 35°23' E 139°45'0 0.1
2018-Jan-11 08:53N 35°24' E 139°45'0 0.0
2018-Jan-11 08:29N 35°24' E 139°45'0 0.0
2018-Jan-11 07:59N 35°24' E 139°45'0 0.0
2018-Jan-11 07:29N 35°24' E 139°45'0 0.0
2018-Jan-11 06:59N 35°24' E 139°45'0 0.0
2018-Jan-11 06:26N 35°24' E 139°45'0 0.0
2018-Jan-11 05:59N 35°24' E 139°45'0 0.0
2018-Jan-11 05:29N 35°24' E 139°45'0 0.0
2018-Jan-11 04:59N 35°24' E 139°45'0 0.0
2018-Jan-11 04:29N 35°23' E 139°45'0 0.1
2018-Jan-11 03:59N 35°24' E 139°45'0 0.0
2018-Jan-11 03:29N 35°24' E 139°45'0 0.0
2018-Jan-11 02:59N 35°24' E 139°45'0 0.1
2018-Jan-11 02:29N 35°23' E 139°45'0 0.0
2018-Jan-11 01:59N 35°23' E 139°45'0 0.1
2018-Jan-11 01:29N 35°23' E 139°45'1 1.4
2018-Jan-11 00:58N 35°23' E 139°44'0 0.0
2018-Jan-11 00:28N 35°23' E 139°44'0 0.0
2018-Jan-10 23:58N 35°23' E 139°44'0 0.0
2018-Jan-10 23:28N 35°23' E 139°44'0 0.0
2018-Jan-10 22:58N 35°23' E 139°44'0 0.0
2018-Jan-10 22:28N 35°23' E 139°44'0 0.1
2018-Jan-10 21:58N 35°23' E 139°44'0 0.0
2018-Jan-10 21:28N 35°23' E 139°44'0 0.0
2018-Jan-10 20:58N 35°23' E 139°44'0 0.0
2018-Jan-10 20:28N 35°23' E 139°44'0 0.0
2018-Jan-10 19:55N 35°23' E 139°44'0 0.0
2018-Jan-10 19:28N 35°23' E 139°44'0 0.0
2018-Jan-10 18:58N 35°23' E 139°44'0 0.0
2018-Jan-10 18:28N 35°23' E 139°44'0 0.0
2018-Jan-10 17:58N 35°23' E 139°44'0 0.1
2018-Jan-10 17:28N 35°23' E 139°44'0 0.1
2018-Jan-10 16:58N 35°23' E 139°44'0 0.0
2018-Jan-10 16:28N 35°23' E 139°44'1 1.9
2018-Jan-10 16:00N 35°22' E 139°44'510.2
2018-Jan-10 15:30N 35°17' E 139°45'510.4
2018-Jan-10 15:00N 35°12' E 139°47'510.9
2018-Jan-10 14:30N 35°07' E 139°45'711.2
2018-Jan-10 13:56N 35°03' E 139°39'512.1
2018-Jan-10 13:28N 34°59' E 139°33'1113.2
2018-Jan-10 12:39N 34°53' E 139°23'513.5
2018-Jan-10 12:17N 34°50' E 139°18'512.3
2018-Jan-10 11:51N 34°46' E 139°13'  

Dump ship's entire track history